sensor_id;sensor_type;location;lat;lon;timestamp;temperature;humidity
11304;DHT22;5707;49.588;12.148;2023-11-22T00:00:02;2.50;99.90
11304;DHT22;5707;49.588;12.148;2023-11-22T00:02:29;2.50;99.90
11304;DHT22;5707;49.588;12.148;2023-11-22T00:04:55;2.50;99.90
11304;DHT22;5707;49.588;12.148;2023-11-22T00:07:21;2.40;99.90
11304;DHT22;5707;49.588;12.148;2023-11-22T00:09:47;2.40;99.90
11304;DHT22;5707;49.588;12.148;2023-11-22T00:12:13;2.30;99.90
11304;DHT22;5707;49.588;12.148;2023-11-22T00:14:38;2.20;99.90
11304;DHT22;5707;49.588;12.148;2023-11-22T00:17:04;2.10;99.90
11304;DHT22;5707;49.588;12.148;2023-11-22T00:19:30;2.10;99.90
11304;DHT22;5707;49.588;12.148;2023-11-22T00:21:56;2.10;99.90
11304;DHT22;5707;49.588;12.148;2023-11-22T00:24:21;2.10;99.90
11304;DHT22;5707;49.588;12.148;2023-11-22T00:26:47;2.10;99.90
11304;DHT22;5707;49.588;12.148;2023-11-22T00:29:12;2.00;99.90
11304;DHT22;5707;49.588;12.148;2023-11-22T00:31:38;1.90;99.90
11304;DHT22;5707;49.588;12.148;2023-11-22T00:34:04;1.90;99.90
11304;DHT22;5707;49.588;12.148;2023-11-22T00:36:30;2.00;99.90
11304;DHT22;5707;49.588;12.148;2023-11-22T00:38:55;2.00;99.90
11304;DHT22;5707;49.588;12.148;2023-11-22T00:41:21;2.10;99.90
11304;DHT22;5707;49.588;12.148;2023-11-22T00:43:46;2.10;99.90
11304;DHT22;5707;49.588;12.148;2023-11-22T00:46:13;2.10;99.90
11304;DHT22;5707;49.588;12.148;2023-11-22T00:48:38;2.10;99.90
11304;DHT22;5707;49.588;12.148;2023-11-22T00:51:04;2.20;99.90
11304;DHT22;5707;49.588;12.148;2023-11-22T00:53:34;2.30;99.90
11304;DHT22;5707;49.588;12.148;2023-11-22T00:56:02;2.30;99.90
11304;DHT22;5707;49.588;12.148;2023-11-22T00:58:27;2.30;99.90
11304;DHT22;5707;49.588;12.148;2023-11-22T01:00:53;2.30;99.90
11304;DHT22;5707;49.588;12.148;2023-11-22T01:03:18;2.40;99.90
11304;DHT22;5707;49.588;12.148;2023-11-22T01:05:44;2.40;99.90
11304;DHT22;5707;49.588;12.148;2023-11-22T01:08:12;2.40;99.90
11304;DHT22;5707;49.588;12.148;2023-11-22T01:10:39;2.40;99.90
11304;DHT22;5707;49.588;12.148;2023-11-22T01:13:04;2.40;99.90
11304;DHT22;5707;49.588;12.148;2023-11-22T01:15:30;2.40;99.90
11304;DHT22;5707;49.588;12.148;2023-11-22T01:17:56;2.40;99.90
11304;DHT22;5707;49.588;12.148;2023-11-22T01:20:21;2.40;99.90
11304;DHT22;5707;49.588;12.148;2023-11-22T01:22:48;2.40;99.90
11304;DHT22;5707;49.588;12.148;2023-11-22T01:25:14;2.40;99.90
11304;DHT22;5707;49.588;12.148;2023-11-22T01:27:40;2.40;99.90
11304;DHT22;5707;49.588;12.148;2023-11-22T01:30:06;2.40;99.90
11304;DHT22;5707;49.588;12.148;2023-11-22T01:32:35;2.40;99.90
11304;DHT22;5707;49.588;12.148;2023-11-22T01:35:01;2.40;99.90
11304;DHT22;5707;49.588;12.148;2023-11-22T01:37:26;2.40;99.90
11304;DHT22;5707;49.588;12.148;2023-11-22T01:39:52;2.40;99.90
11304;DHT22;5707;49.588;12.148;2023-11-22T01:42:19;2.40;99.90
11304;DHT22;5707;49.588;12.148;2023-11-22T01:44:46;2.30;99.90
11304;DHT22;5707;49.588;12.148;2023-11-22T01:47:13;2.30;99.90
11304;DHT22;5707;49.588;12.148;2023-11-22T01:49:39;2.30;99.90
11304;DHT22;5707;49.588;12.148;2023-11-22T01:52:05;2.30;99.90
11304;DHT22;5707;49.588;12.148;2023-11-22T01:54:32;2.20;99.90
11304;DHT22;5707;49.588;12.148;2023-11-22T01:56:58;2.20;99.90
11304;DHT22;5707;49.588;12.148;2023-11-22T01:59:25;2.20;99.90
11304;DHT22;5707;49.588;12.148;2023-11-22T02:01:52;2.20;99.90
11304;DHT22;5707;49.588;12.148;2023-11-22T02:04:18;2.10;99.90
11304;DHT22;5707;49.588;12.148;2023-11-22T02:06:44;2.10;99.90
11304;DHT22;5707;49.588;12.148;2023-11-22T02:09:10;2.10;99.90
11304;DHT22;5707;49.588;12.148;2023-11-22T02:11:39;2.00;99.90
11304;DHT22;5707;49.588;12.148;2023-11-22T02:14:05;2.00;99.90
11304;DHT22;5707;49.588;12.148;2023-11-22T02:16:32;2.00;99.90
11304;DHT22;5707;49.588;12.148;2023-11-22T02:18:58;2.10;99.90
11304;DHT22;5707;49.588;12.148;2023-11-22T02:21:23;2.10;99.90
11304;DHT22;5707;49.588;12.148;2023-11-22T02:23:49;2.00;99.90
11304;DHT22;5707;49.588;12.148;2023-11-22T02:26:15;2.00;99.90
11304;DHT22;5707;49.588;12.148;2023-11-22T02:28:43;2.00;99.90
11304;DHT22;5707;49.588;12.148;2023-11-22T02:31:09;2.10;99.90
11304;DHT22;5707;49.588;12.148;2023-11-22T02:33:35;2.00;99.90
11304;DHT22;5707;49.588;12.148;2023-11-22T02:36:01;2.00;99.90
11304;DHT22;5707;49.588;12.148;2023-11-22T02:38:28;2.00;99.90
11304;DHT22;5707;49.588;12.148;2023-11-22T02:40:53;2.00;99.90
11304;DHT22;5707;49.588;12.148;2023-11-22T02:43:19;2.00;99.90
11304;DHT22;5707;49.588;12.148;2023-11-22T02:45:45;2.00;99.90
11304;DHT22;5707;49.588;12.148;2023-11-22T02:48:11;2.00;99.90
11304;DHT22;5707;49.588;12.148;2023-11-22T02:50:38;2.00;99.90
11304;DHT22;5707;49.588;12.148;2023-11-22T02:53:04;2.00;99.90
11304;DHT22;5707;49.588;12.148;2023-11-22T02:55:30;2.00;99.90
11304;DHT22;5707;49.588;12.148;2023-11-22T02:57:56;2.00;99.90
11304;DHT22;5707;49.588;12.148;2023-11-22T03:00:22;1.90;99.90
11304;DHT22;5707;49.588;12.148;2023-11-22T03:02:48;1.80;99.90
11304;DHT22;5707;49.588;12.148;2023-11-22T03:05:22;1.90;99.90
11304;DHT22;5707;49.588;12.148;2023-11-22T03:07:47;1.80;99.90
11304;DHT22;5707;49.588;12.148;2023-11-22T03:10:13;1.80;99.90
11304;DHT22;5707;49.588;12.148;2023-11-22T03:12:39;1.80;99.90
11304;DHT22;5707;49.588;12.148;2023-11-22T03:15:07;1.80;99.90
11304;DHT22;5707;49.588;12.148;2023-11-22T03:17:34;1.80;99.90
11304;DHT22;5707;49.588;12.148;2023-11-22T03:19:59;1.80;99.90
11304;DHT22;5707;49.588;12.148;2023-11-22T03:22:27;1.80;99.90
11304;DHT22;5707;49.588;12.148;2023-11-22T03:24:56;1.80;99.90
11304;DHT22;5707;49.588;12.148;2023-11-22T03:27:21;1.80;99.90
11304;DHT22;5707;49.588;12.148;2023-11-22T03:29:48;1.90;99.90
11304;DHT22;5707;49.588;12.148;2023-11-22T03:32:14;1.90;99.90
11304;DHT22;5707;49.588;12.148;2023-11-22T03:34:40;1.90;99.90
11304;DHT22;5707;49.588;12.148;2023-11-22T03:37:05;1.90;99.90
11304;DHT22;5707;49.588;12.148;2023-11-22T03:39:31;1.80;99.90
11304;DHT22;5707;49.588;12.148;2023-11-22T03:41:56;1.80;99.90
11304;DHT22;5707;49.588;12.148;2023-11-22T03:44:22;1.80;99.90
11304;DHT22;5707;49.588;12.148;2023-11-22T03:46:48;1.80;99.90
11304;DHT22;5707;49.588;12.148;2023-11-22T03:49:14;1.80;99.90
11304;DHT22;5707;49.588;12.148;2023-11-22T03:51:41;1.80;99.90
11304;DHT22;5707;49.588;12.148;2023-11-22T03:54:07;1.80;99.90
11304;DHT22;5707;49.588;12.148;2023-11-22T03:56:33;1.70;99.90
11304;DHT22;5707;49.588;12.148;2023-11-22T03:58:59;1.70;99.90
11304;DHT22;5707;49.588;12.148;2023-11-22T04:01:24;1.70;99.90
11304;DHT22;5707;49.588;12.148;2023-11-22T04:03:50;1.70;99.90
11304;DHT22;5707;49.588;12.148;2023-11-22T04:06:17;1.70;99.90
11304;DHT22;5707;49.588;12.148;2023-11-22T04:08:43;1.70;99.90
11304;DHT22;5707;49.588;12.148;2023-11-22T04:11:09;1.70;99.90
11304;DHT22;5707;49.588;12.148;2023-11-22T04:13:35;1.70;99.90
11304;DHT22;5707;49.588;12.148;2023-11-22T04:16:01;1.70;99.90
11304;DHT22;5707;49.588;12.148;2023-11-22T04:18:27;1.70;99.90
11304;DHT22;5707;49.588;12.148;2023-11-22T04:20:52;1.70;99.90
11304;DHT22;5707;49.588;12.148;2023-11-22T04:23:18;1.60;99.90
11304;DHT22;5707;49.588;12.148;2023-11-22T04:25:44;1.60;99.90
11304;DHT22;5707;49.588;12.148;2023-11-22T04:28:09;1.60;99.90
11304;DHT22;5707;49.588;12.148;2023-11-22T04:30:36;1.60;99.90
11304;DHT22;5707;49.588;12.148;2023-11-22T04:33:01;1.60;99.90
11304;DHT22;5707;49.588;12.148;2023-11-22T04:35:27;1.60;99.90
11304;DHT22;5707;49.588;12.148;2023-11-22T04:37:53;1.60;99.90
11304;DHT22;5707;49.588;12.148;2023-11-22T04:40:20;1.60;99.90
11304;DHT22;5707;49.588;12.148;2023-11-22T04:42:46;1.60;99.90
11304;DHT22;5707;49.588;12.148;2023-11-22T04:45:12;1.60;99.90
11304;DHT22;5707;49.588;12.148;2023-11-22T04:47:38;1.60;99.90
11304;DHT22;5707;49.588;12.148;2023-11-22T04:50:04;1.50;99.90
11304;DHT22;5707;49.588;12.148;2023-11-22T04:52:30;1.50;99.90
11304;DHT22;5707;49.588;12.148;2023-11-22T04:54:56;1.40;99.90
11304;DHT22;5707;49.588;12.148;2023-11-22T04:57:21;1.40;99.90
11304;DHT22;5707;49.588;12.148;2023-11-22T04:59:47;1.30;99.90
11304;DHT22;5707;49.588;12.148;2023-11-22T05:02:12;1.30;99.90
11304;DHT22;5707;49.588;12.148;2023-11-22T05:04:38;1.20;99.90
11304;DHT22;5707;49.588;12.148;2023-11-22T05:07:04;1.20;99.90
11304;DHT22;5707;49.588;12.148;2023-11-22T05:09:29;1.20;99.90
11304;DHT22;5707;49.588;12.148;2023-11-22T05:11:55;1.20;99.90
11304;DHT22;5707;49.588;12.148;2023-11-22T05:14:20;1.20;99.90
11304;DHT22;5707;49.588;12.148;2023-11-22T05:16:46;1.20;99.90
11304;DHT22;5707;49.588;12.148;2023-11-22T05:19:12;1.30;99.90
11304;DHT22;5707;49.588;12.148;2023-11-22T05:21:37;1.30;99.90
11304;DHT22;5707;49.588;12.148;2023-11-22T05:24:03;1.30;99.90
11304;DHT22;5707;49.588;12.148;2023-11-22T05:26:29;1.30;99.90
11304;DHT22;5707;49.588;12.148;2023-11-22T05:28:54;1.20;99.90
11304;DHT22;5707;49.588;12.148;2023-11-22T05:31:20;1.20;99.90
11304;DHT22;5707;49.588;12.148;2023-11-22T05:33:46;1.30;99.90
11304;DHT22;5707;49.588;12.148;2023-11-22T05:36:12;1.20;99.90
11304;DHT22;5707;49.588;12.148;2023-11-22T05:38:37;1.20;99.90
11304;DHT22;5707;49.588;12.148;2023-11-22T05:41:03;1.20;99.90
11304;DHT22;5707;49.588;12.148;2023-11-22T05:43:29;1.10;99.90
11304;DHT22;5707;49.588;12.148;2023-11-22T05:45:54;1.10;99.90
11304;DHT22;5707;49.588;12.148;2023-11-22T05:48:20;1.10;99.90
11304;DHT22;5707;49.588;12.148;2023-11-22T05:50:46;1.00;99.90
11304;DHT22;5707;49.588;12.148;2023-11-22T05:53:12;1.00;99.90
11304;DHT22;5707;49.588;12.148;2023-11-22T05:55:45;1.10;99.90
11304;DHT22;5707;49.588;12.148;2023-11-22T05:58:11;1.10;99.90
11304;DHT22;5707;49.588;12.148;2023-11-22T06:00:37;1.10;99.90
11304;DHT22;5707;49.588;12.148;2023-11-22T06:03:04;1.10;99.90
11304;DHT22;5707;49.588;12.148;2023-11-22T06:05:29;1.10;99.90
11304;DHT22;5707;49.588;12.148;2023-11-22T06:07:56;1.10;99.90
11304;DHT22;5707;49.588;12.148;2023-11-22T06:10:22;1.10;99.90
11304;DHT22;5707;49.588;12.148;2023-11-22T06:12:48;1.10;99.90
11304;DHT22;5707;49.588;12.148;2023-11-22T06:15:13;1.10;99.90
11304;DHT22;5707;49.588;12.148;2023-11-22T06:17:39;1.10;99.90
11304;DHT22;5707;49.588;12.148;2023-11-22T06:20:05;1.10;99.90
11304;DHT22;5707;49.588;12.148;2023-11-22T06:22:32;1.10;99.90
11304;DHT22;5707;49.588;12.148;2023-11-22T06:24:57;1.10;99.90
11304;DHT22;5707;49.588;12.148;2023-11-22T06:27:23;1.10;99.90
11304;DHT22;5707;49.588;12.148;2023-11-22T06:29:49;1.10;99.90
11304;DHT22;5707;49.588;12.148;2023-11-22T06:32:14;1.10;99.90
11304;DHT22;5707;49.588;12.148;2023-11-22T06:34:40;1.10;99.90
11304;DHT22;5707;49.588;12.148;2023-11-22T06:37:05;1.10;99.90
11304;DHT22;5707;49.588;12.148;2023-11-22T06:39:34;1.10;99.90
11304;DHT22;5707;49.588;12.148;2023-11-22T06:42:00;1.10;99.90
11304;DHT22;5707;49.588;12.148;2023-11-22T06:44:26;1.10;99.90
11304;DHT22;5707;49.588;12.148;2023-11-22T06:46:53;1.10;99.90
11304;DHT22;5707;49.588;12.148;2023-11-22T06:49:19;1.10;99.90
11304;DHT22;5707;49.588;12.148;2023-11-22T06:51:44;1.10;99.90
11304;DHT22;5707;49.588;12.148;2023-11-22T06:54:10;1.10;99.90
11304;DHT22;5707;49.588;12.148;2023-11-22T06:56:36;1.10;99.90
11304;DHT22;5707;49.588;12.148;2023-11-22T06:59:01;1.10;99.90
11304;DHT22;5707;49.588;12.148;2023-11-22T07:01:27;1.10;99.90
11304;DHT22;5707;49.588;12.148;2023-11-22T07:03:52;1.10;99.90
11304;DHT22;5707;49.588;12.148;2023-11-22T07:06:18;1.10;99.90
11304;DHT22;5707;49.588;12.148;2023-11-22T07:08:44;1.10;99.90
11304;DHT22;5707;49.588;12.148;2023-11-22T07:11:11;1.10;99.90
11304;DHT22;5707;49.588;12.148;2023-11-22T07:13:36;1.10;99.90
11304;DHT22;5707;49.588;12.148;2023-11-22T07:16:04;1.10;99.90
11304;DHT22;5707;49.588;12.148;2023-11-22T07:18:30;1.20;99.90
11304;DHT22;5707;49.588;12.148;2023-11-22T07:20:57;1.20;99.90
11304;DHT22;5707;49.588;12.148;2023-11-22T07:23:23;1.20;99.90
11304;DHT22;5707;49.588;12.148;2023-11-22T07:25:52;1.20;99.90
11304;DHT22;5707;49.588;12.148;2023-11-22T07:28:18;1.20;99.90
11304;DHT22;5707;49.588;12.148;2023-11-22T07:30:44;1.20;99.90
11304;DHT22;5707;49.588;12.148;2023-11-22T07:33:10;1.20;99.90
11304;DHT22;5707;49.588;12.148;2023-11-22T07:35:36;1.30;99.90
11304;DHT22;5707;49.588;12.148;2023-11-22T07:38:02;1.30;99.90
11304;DHT22;5707;49.588;12.148;2023-11-22T07:40:29;1.30;99.90
11304;DHT22;5707;49.588;12.148;2023-11-22T07:42:54;1.30;99.90
11304;DHT22;5707;49.588;12.148;2023-11-22T07:45:20;1.30;99.90
11304;DHT22;5707;49.588;12.148;2023-11-22T07:47:46;1.30;99.90
11304;DHT22;5707;49.588;12.148;2023-11-22T07:50:12;1.40;99.90
11304;DHT22;5707;49.588;12.148;2023-11-22T07:52:38;1.40;99.90
11304;DHT22;5707;49.588;12.148;2023-11-22T07:55:06;1.40;99.90
11304;DHT22;5707;49.588;12.148;2023-11-22T07:57:38;1.40;99.90
11304;DHT22;5707;49.588;12.148;2023-11-22T08:00:07;1.40;99.90
11304;DHT22;5707;49.588;12.148;2023-11-22T08:02:34;1.30;99.90
11304;DHT22;5707;49.588;12.148;2023-11-22T08:04:59;1.30;99.90
11304;DHT22;5707;49.588;12.148;2023-11-22T08:07:27;1.30;99.90
11304;DHT22;5707;49.588;12.148;2023-11-22T08:09:53;1.30;99.90
11304;DHT22;5707;49.588;12.148;2023-11-22T08:12:19;1.40;99.90
11304;DHT22;5707;49.588;12.148;2023-11-22T08:14:45;1.40;99.90
11304;DHT22;5707;49.588;12.148;2023-11-22T08:17:11;1.30;99.90
11304;DHT22;5707;49.588;12.148;2023-11-22T08:19:37;1.30;99.90
11304;DHT22;5707;49.588;12.148;2023-11-22T08:22:05;1.40;99.90
11304;DHT22;5707;49.588;12.148;2023-11-22T08:24:31;1.30;99.90
11304;DHT22;5707;49.588;12.148;2023-11-22T08:26:57;1.30;99.90
11304;DHT22;5707;49.588;12.148;2023-11-22T08:29:24;1.30;99.90
11304;DHT22;5707;49.588;12.148;2023-11-22T08:31:49;1.30;99.90
11304;DHT22;5707;49.588;12.148;2023-11-22T08:34:16;1.30;99.90
11304;DHT22;5707;49.588;12.148;2023-11-22T08:36:42;1.40;99.90
11304;DHT22;5707;49.588;12.148;2023-11-22T08:39:08;1.40;99.90
11304;DHT22;5707;49.588;12.148;2023-11-22T08:41:33;1.40;99.90
11304;DHT22;5707;49.588;12.148;2023-11-22T08:43:59;1.40;99.90
11304;DHT22;5707;49.588;12.148;2023-11-22T08:46:25;1.40;99.90
11304;DHT22;5707;49.588;12.148;2023-11-22T08:48:51;1.40;99.90
11304;DHT22;5707;49.588;12.148;2023-11-22T08:51:17;1.40;99.90
11304;DHT22;5707;49.588;12.148;2023-11-22T08:53:43;1.30;99.90
11304;DHT22;5707;49.588;12.148;2023-11-22T08:56:12;1.30;99.90
11304;DHT22;5707;49.588;12.148;2023-11-22T08:58:38;1.40;99.90
11304;DHT22;5707;49.588;12.148;2023-11-22T09:01:05;1.40;99.90
11304;DHT22;5707;49.588;12.148;2023-11-22T09:03:31;1.40;99.90
11304;DHT22;5707;49.588;12.148;2023-11-22T09:05:58;1.40;99.90
11304;DHT22;5707;49.588;12.148;2023-11-22T09:08:23;1.40;99.90
11304;DHT22;5707;49.588;12.148;2023-11-22T09:10:49;1.50;99.90
11304;DHT22;5707;49.588;12.148;2023-11-22T09:13:16;1.50;99.90
11304;DHT22;5707;49.588;12.148;2023-11-22T09:15:42;1.60;99.90
11304;DHT22;5707;49.588;12.148;2023-11-22T09:18:13;1.60;99.90
11304;DHT22;5707;49.588;12.148;2023-11-22T09:20:39;1.50;99.90
11304;DHT22;5707;49.588;12.148;2023-11-22T09:23:04;1.50;99.90
11304;DHT22;5707;49.588;12.148;2023-11-22T09:25:30;1.50;99.90
11304;DHT22;5707;49.588;12.148;2023-11-22T09:27:57;1.50;99.90
11304;DHT22;5707;49.588;12.148;2023-11-22T09:30:31;1.60;99.90
11304;DHT22;5707;49.588;12.148;2023-11-22T09:33:07;1.60;99.90
11304;DHT22;5707;49.588;12.148;2023-11-22T09:35:34;1.60;99.90
11304;DHT22;5707;49.588;12.148;2023-11-22T09:38:07;1.70;99.90
11304;DHT22;5707;49.588;12.148;2023-11-22T09:40:47;1.70;99.90
11304;DHT22;5707;49.588;12.148;2023-11-22T09:43:15;1.70;99.90
11304;DHT22;5707;49.588;12.148;2023-11-22T09:45:44;1.70;99.90
11304;DHT22;5707;49.588;12.148;2023-11-22T09:48:19;1.70;99.90
11304;DHT22;5707;49.588;12.148;2023-11-22T09:51:04;1.80;99.90
11304;DHT22;5707;49.588;12.148;2023-11-22T09:53:44;1.80;99.90
11304;DHT22;5707;49.588;12.148;2023-11-22T09:56:12;1.90;99.90
11304;DHT22;5707;49.588;12.148;2023-11-22T09:58:42;1.80;99.90
11304;DHT22;5707;49.588;12.148;2023-11-22T10:01:13;1.70;99.90
11304;DHT22;5707;49.588;12.148;2023-11-22T10:03:39;1.70;99.90
11304;DHT22;5707;49.588;12.148;2023-11-22T10:06:06;1.70;99.90
11304;DHT22;5707;49.588;12.148;2023-11-22T10:08:32;1.70;99.90
11304;DHT22;5707;49.588;12.148;2023-11-22T10:10:59;1.70;99.90
11304;DHT22;5707;49.588;12.148;2023-11-22T10:13:25;1.60;99.90
11304;DHT22;5707;49.588;12.148;2023-11-22T10:15:51;1.60;99.90
11304;DHT22;5707;49.588;12.148;2023-11-22T10:18:21;1.60;99.90
11304;DHT22;5707;49.588;12.148;2023-11-22T10:20:48;1.60;99.90
11304;DHT22;5707;49.588;12.148;2023-11-22T10:23:16;1.50;99.90
11304;DHT22;5707;49.588;12.148;2023-11-22T10:25:49;1.50;99.90
11304;DHT22;5707;49.588;12.148;2023-11-22T10:28:22;1.50;99.90
11304;DHT22;5707;49.588;12.148;2023-11-22T10:30:50;1.50;99.90
11304;DHT22;5707;49.588;12.148;2023-11-22T10:33:17;1.50;99.90
11304;DHT22;5707;49.588;12.148;2023-11-22T10:35:47;1.50;99.90
11304;DHT22;5707;49.588;12.148;2023-11-22T10:38:17;1.50;99.90
11304;DHT22;5707;49.588;12.148;2023-11-22T10:40:44;1.50;99.90
11304;DHT22;5707;49.588;12.148;2023-11-22T10:43:14;1.40;99.90
11304;DHT22;5707;49.588;12.148;2023-11-22T10:45:41;1.50;99.90
11304;DHT22;5707;49.588;12.148;2023-11-22T10:48:11;1.40;99.90
11304;DHT22;5707;49.588;12.148;2023-11-22T10:50:37;1.40;99.90
11304;DHT22;5707;49.588;12.148;2023-11-22T10:53:06;1.40;99.90
11304;DHT22;5707;49.588;12.148;2023-11-22T10:55:32;1.40;99.90
11304;DHT22;5707;49.588;12.148;2023-11-22T10:58:04;1.40;99.90
11304;DHT22;5707;49.588;12.148;2023-11-22T11:00:32;1.40;99.90
11304;DHT22;5707;49.588;12.148;2023-11-22T11:03:00;1.40;99.90
11304;DHT22;5707;49.588;12.148;2023-11-22T11:05:31;1.40;99.90
11304;DHT22;5707;49.588;12.148;2023-11-22T11:08:02;1.50;99.90
11304;DHT22;5707;49.588;12.148;2023-11-22T11:10:34;1.40;99.90
11304;DHT22;5707;49.588;12.148;2023-11-22T11:13:01;1.40;99.90
11304;DHT22;5707;49.588;12.148;2023-11-22T11:15:27;1.40;99.90
11304;DHT22;5707;49.588;12.148;2023-11-22T11:17:54;1.50;99.90
11304;DHT22;5707;49.588;12.148;2023-11-22T11:20:22;1.40;99.90
11304;DHT22;5707;49.588;12.148;2023-11-22T11:22:49;1.40;99.90
11304;DHT22;5707;49.588;12.148;2023-11-22T11:25:16;1.50;99.90
11304;DHT22;5707;49.588;12.148;2023-11-22T11:27:49;1.50;99.90
11304;DHT22;5707;49.588;12.148;2023-11-22T11:32:58;1.50;99.90
11304;DHT22;5707;49.588;12.148;2023-11-22T11:35:41;1.50;99.90
11304;DHT22;5707;49.588;12.148;2023-11-22T11:38:07;1.50;99.90
11304;DHT22;5707;49.588;12.148;2023-11-22T11:40:35;1.60;99.90
11304;DHT22;5707;49.588;12.148;2023-11-22T11:43:01;1.50;99.90
11304;DHT22;5707;49.588;12.148;2023-11-22T11:45:27;1.50;99.90
11304;DHT22;5707;49.588;12.148;2023-11-22T11:47:54;1.50;99.90
11304;DHT22;5707;49.588;12.148;2023-11-22T11:50:22;1.60;99.90
11304;DHT22;5707;49.588;12.148;2023-11-22T11:52:48;1.50;99.90
11304;DHT22;5707;49.588;12.148;2023-11-22T11:55:13;1.50;99.90
11304;DHT22;5707;49.588;12.148;2023-11-22T11:57:40;1.50;99.90
11304;DHT22;5707;49.588;12.148;2023-11-22T12:00:08;1.50;99.90
11304;DHT22;5707;49.588;12.148;2023-11-22T12:02:35;1.50;99.90
11304;DHT22;5707;49.588;12.148;2023-11-22T12:05:00;1.50;99.90
11304;DHT22;5707;49.588;12.148;2023-11-22T12:07:36;1.50;99.90
11304;DHT22;5707;49.588;12.148;2023-11-22T12:10:03;1.60;99.90
11304;DHT22;5707;49.588;12.148;2023-11-22T12:12:31;1.60;99.90
11304;DHT22;5707;49.588;12.148;2023-11-22T12:14:57;1.60;99.90
11304;DHT22;5707;49.588;12.148;2023-11-22T12:17:22;1.70;99.90
11304;DHT22;5707;49.588;12.148;2023-11-22T12:19:48;1.70;99.90
11304;DHT22;5707;49.588;12.148;2023-11-22T12:22:14;1.70;99.90
11304;DHT22;5707;49.588;12.148;2023-11-22T12:24:42;1.80;99.90
11304;DHT22;5707;49.588;12.148;2023-11-22T12:27:11;1.80;99.90
11304;DHT22;5707;49.588;12.148;2023-11-22T12:29:37;1.80;99.90
11304;DHT22;5707;49.588;12.148;2023-11-22T12:32:03;1.80;99.90
11304;DHT22;5707;49.588;12.148;2023-11-22T12:34:29;1.80;99.90
11304;DHT22;5707;49.588;12.148;2023-11-22T12:36:56;1.80;99.90
11304;DHT22;5707;49.588;12.148;2023-11-22T12:39:21;1.80;99.90
11304;DHT22;5707;49.588;12.148;2023-11-22T12:41:49;1.80;99.90
11304;DHT22;5707;49.588;12.148;2023-11-22T12:44:18;1.90;99.90
11304;DHT22;5707;49.588;12.148;2023-11-22T12:46:52;1.90;99.90
11304;DHT22;5707;49.588;12.148;2023-11-22T12:49:44;1.90;99.90
11304;DHT22;5707;49.588;12.148;2023-11-22T12:52:11;1.90;99.90
11304;DHT22;5707;49.588;12.148;2023-11-22T12:54:37;1.80;99.90
11304;DHT22;5707;49.588;12.148;2023-11-22T12:57:09;1.80;99.90
11304;DHT22;5707;49.588;12.148;2023-11-22T12:59:35;1.80;99.90
11304;DHT22;5707;49.588;12.148;2023-11-22T13:02:01;1.80;99.90
11304;DHT22;5707;49.588;12.148;2023-11-22T13:04:28;1.80;99.90
11304;DHT22;5707;49.588;12.148;2023-11-22T13:06:55;1.90;99.90
11304;DHT22;5707;49.588;12.148;2023-11-22T13:09:20;2.00;99.90
11304;DHT22;5707;49.588;12.148;2023-11-22T13:11:46;2.10;99.90
11304;DHT22;5707;49.588;12.148;2023-11-22T13:14:12;2.10;99.90
11304;DHT22;5707;49.588;12.148;2023-11-22T13:16:41;2.10;99.90
11304;DHT22;5707;49.588;12.148;2023-11-22T13:19:08;2.10;99.90
11304;DHT22;5707;49.588;12.148;2023-11-22T13:21:34;2.10;99.90
11304;DHT22;5707;49.588;12.148;2023-11-22T13:24:01;2.10;99.90
11304;DHT22;5707;49.588;12.148;2023-11-22T13:26:26;2.10;99.90
11304;DHT22;5707;49.588;12.148;2023-11-22T13:28:52;2.10;99.90
11304;DHT22;5707;49.588;12.148;2023-11-22T13:31:19;2.00;99.90
11304;DHT22;5707;49.588;12.148;2023-11-22T13:33:47;1.90;99.90
11304;DHT22;5707;49.588;12.148;2023-11-22T13:36:12;1.90;99.90
11304;DHT22;5707;49.588;12.148;2023-11-22T13:38:39;1.90;99.90
11304;DHT22;5707;49.588;12.148;2023-11-22T13:41:05;1.90;99.90
11304;DHT22;5707;49.588;12.148;2023-11-22T13:43:31;1.90;99.90
11304;DHT22;5707;49.588;12.148;2023-11-22T13:45:58;1.80;99.90
11304;DHT22;5707;49.588;12.148;2023-11-22T13:48:25;1.80;99.90
11304;DHT22;5707;49.588;12.148;2023-11-22T13:50:50;1.90;99.90
11304;DHT22;5707;49.588;12.148;2023-11-22T13:53:16;1.80;99.90
11304;DHT22;5707;49.588;12.148;2023-11-22T13:55:45;1.80;99.90
11304;DHT22;5707;49.588;12.148;2023-11-22T13:58:10;1.90;99.90
11304;DHT22;5707;49.588;12.148;2023-11-22T14:00:36;1.90;99.90
11304;DHT22;5707;49.588;12.148;2023-11-22T14:03:04;1.90;99.90
11304;DHT22;5707;49.588;12.148;2023-11-22T14:05:34;1.90;99.90
11304;DHT22;5707;49.588;12.148;2023-11-22T14:08:02;1.80;99.90
11304;DHT22;5707;49.588;12.148;2023-11-22T14:10:27;1.80;99.90
11304;DHT22;5707;49.588;12.148;2023-11-22T14:12:54;1.80;99.90
11304;DHT22;5707;49.588;12.148;2023-11-22T14:15:19;1.70;99.90
11304;DHT22;5707;49.588;12.148;2023-11-22T14:17:45;1.80;99.90
11304;DHT22;5707;49.588;12.148;2023-11-22T14:20:15;1.80;99.90
11304;DHT22;5707;49.588;12.148;2023-11-22T14:22:41;1.80;99.90
11304;DHT22;5707;49.588;12.148;2023-11-22T14:25:08;1.70;99.90
11304;DHT22;5707;49.588;12.148;2023-11-22T14:27:47;1.70;99.90
11304;DHT22;5707;49.588;12.148;2023-11-22T14:30:17;1.70;99.90
11304;DHT22;5707;49.588;12.148;2023-11-22T14:32:43;1.70;99.90
11304;DHT22;5707;49.588;12.148;2023-11-22T14:35:09;1.60;99.90
11304;DHT22;5707;49.588;12.148;2023-11-22T14:37:35;1.60;99.90
11304;DHT22;5707;49.588;12.148;2023-11-22T14:40:03;1.50;99.90
11304;DHT22;5707;49.588;12.148;2023-11-22T14:42:30;1.50;99.90
11304;DHT22;5707;49.588;12.148;2023-11-22T14:44:56;1.50;99.90
11304;DHT22;5707;49.588;12.148;2023-11-22T14:47:22;1.40;99.90
11304;DHT22;5707;49.588;12.148;2023-11-22T14:49:55;1.50;99.90
11304;DHT22;5707;49.588;12.148;2023-11-22T14:52:20;1.40;99.90
11304;DHT22;5707;49.588;12.148;2023-11-22T14:54:46;1.40;99.90
11304;DHT22;5707;49.588;12.148;2023-11-22T14:57:13;1.40;99.90
11304;DHT22;5707;49.588;12.148;2023-11-22T14:59:40;1.40;99.90
11304;DHT22;5707;49.588;12.148;2023-11-22T15:02:07;1.40;99.90
11304;DHT22;5707;49.588;12.148;2023-11-22T15:04:37;1.40;99.90
11304;DHT22;5707;49.588;12.148;2023-11-22T15:07:04;1.40;99.90
11304;DHT22;5707;49.588;12.148;2023-11-22T15:09:30;1.40;99.90
11304;DHT22;5707;49.588;12.148;2023-11-22T15:12:00;1.30;99.90
11304;DHT22;5707;49.588;12.148;2023-11-22T15:14:32;1.30;99.90
11304;DHT22;5707;49.588;12.148;2023-11-22T15:16:58;1.30;99.90
11304;DHT22;5707;49.588;12.148;2023-11-22T15:19:26;1.30;99.90
11304;DHT22;5707;49.588;12.148;2023-11-22T15:21:53;1.30;99.90
11304;DHT22;5707;49.588;12.148;2023-11-22T15:24:19;1.30;99.90
11304;DHT22;5707;49.588;12.148;2023-11-22T15:26:45;1.30;99.90
11304;DHT22;5707;49.588;12.148;2023-11-22T15:29:11;1.30;99.90
11304;DHT22;5707;49.588;12.148;2023-11-22T15:31:37;1.30;99.90
11304;DHT22;5707;49.588;12.148;2023-11-22T15:34:03;1.30;99.90
11304;DHT22;5707;49.588;12.148;2023-11-22T15:36:29;1.30;99.90
11304;DHT22;5707;49.588;12.148;2023-11-22T15:38:54;1.30;99.90
11304;DHT22;5707;49.588;12.148;2023-11-22T15:41:20;1.30;99.90
11304;DHT22;5707;49.588;12.148;2023-11-22T15:43:46;1.30;99.90